Time;durP1;ratioP1;P1;durP2;ratioP2;P2;SDS_P1;SDS_P2;PMS_P1;PMS_P2;Temp;Humidity;BMP_temperature;BMP_pressure;BME280_temperature;BME280_humidity;BME280_pressure;Samples;Min_cycle;Max_cycle;Signal;HPM_P1;HPM_P2
2021/06/15 00:11:39;;;;;;;3.85;2.22;;;;;;;18.22;100.00;100979.41;4807130;29;20062;-75
2021/06/15 00:14:25;;;;;;;3.67;2.28;;;;;;;18.36;100.00;100977.91;4808496;29;20046;-75
2021/06/15 00:17:11;;;;;;;2.75;2.20;;;;;;;17.82;100.00;100979.44;4808184;29;20111;-75
2021/06/15 00:19:57;;;;;;;5.50;2.40;;;;;;;17.97;100.00;100978.78;4832721;29;20031;-75
2021/06/15 00:22:43;;;;;;;3.72;2.35;;;;;;;17.90;100.00;100969.34;4807760;29;20443;-75
2021/06/15 00:25:29;;;;;;;4.28;2.25;;;;;;;18.00;100.00;100962.72;4819502;29;20039;-75
2021/06/15 00:28:15;;;;;;;4.35;2.50;;;;;;;18.14;100.00;100960.31;4820365;29;20031;-75
2021/06/15 00:31:01;;;;;;;4.22;2.28;;;;;;;18.15;100.00;100949.66;4807437;29;20042;-75
2021/06/15 00:33:47;;;;;;;3.88;2.22;;;;;;;18.03;100.00;100951.97;4820475;29;20035;-75
2021/06/15 00:36:32;;;;;;;6.75;2.20;;;;;;;18.37;100.00;100947.78;4807614;29;20050;-75
2021/06/15 00:39:18;;;;;;;4.63;2.45;;;;;;;18.08;100.00;100949.97;4819431;29;20036;-76
2021/06/15 00:42:06;;;;;;;2.58;2.20;;;;;;;18.28;100.00;100939.34;4808466;29;20048;-75
2021/06/15 00:44:52;;;;;;;2.30;2.10;;;;;;;18.46;100.00;100947.38;4807635;29;20435;-75
2021/06/15 00:47:38;;;;;;;2.30;1.85;;;;;;;18.00;100.00;100949.47;4832784;29;20432;-75
2021/06/15 00:50:26;;;;;;;4.57;2.25;;;;;;;18.23;100.00;100949.31;4832543;29;20595;-77
2021/06/15 00:53:12;;;;;;;3.65;2.33;;;;;;;18.18;100.00;100951.31;4807669;29;20042;-76
2021/06/15 00:55:58;;;;;;;4.35;2.28;;;;;;;18.14;100.00;100957.69;4806463;29;20039;-75
2021/06/15 00:58:45;;;;;;;3.38;2.03;;;;;;;17.76;100.00;100948.75;4808575;29;20141;-75
2021/06/15 01:01:30;;;;;;;4.22;1.88;;;;;;;17.63;100.00;100952.84;4807503;29;20035;-75
2021/06/15 01:04:18;;;;;;;3.72;2.30;;;;;;;17.29;100.00;100956.94;4806999;29;20053;-75
2021/06/15 01:07:13;;;;;;;2.53;2.00;;;;;;;17.53;100.00;100959.44;4807062;29;20031;-75
2021/06/15 01:10:10;;;;;;;2.58;2.20;;;;;;;17.05;100.00;100961.47;4818184;29;20054;-75
2021/06/15 01:13:30;;;;;;;3.25;2.20;;;;;;;17.29;100.00;100965.75;4850288;29;20037;-76
2021/06/15 01:16:41;;;;;;;2.50;1.92;;;;;;;17.76;100.00;100964.66;4850672;29;20117;-76
2021/06/15 01:19:45;;;;;;;3.67;2.00;;;;;;;17.96;100.00;100963.78;4825015;29;20030;-76
2021/06/15 01:22:43;;;;;;;3.67;2.22;;;;;;;18.15;100.00;100956.75;4824584;29;20066;-76
2021/06/15 01:25:55;;;;;;;2.50;1.90;;;;;;;18.12;100.00;100952.44;4825188;29;20034;-76
2021/06/15 01:28:50;;;;;;;2.38;1.98;;;;;;;17.53;100.00;100955.97;4824649;29;20079;-75
2021/06/15 01:31:44;;;;;;;3.55;2.08;;;;;;;17.48;100.00;100957.94;4824371;29;20123;-75
2021/06/15 01:34:34;;;;;;;3.30;2.38;;;;;;;17.80;100.00;100952.16;4825824;29;20042;-75
2021/06/15 01:37:37;;;;;;;3.45;1.95;;;;;;;17.81;100.00;100953.88;4825138;29;20102;-75
2021/06/15 01:40:32;;;;;;;3.15;2.25;;;;;;;17.86;100.00;100947.44;4824478;29;20049;-75
2021/06/15 07:24:45;;;;;;;8.45;5.10;;;;;;;21.27;100.00;100961.91;5783761;23;20114;-77
2021/06/15 07:27:31;;;;;;;10.48;5.15;;;;;;;20.80;100.00;100949.50;4846902;29;20464;-76
2021/06/15 07:30:17;;;;;;;11.80;5.82;;;;;;;21.02;100.00;100942.91;4844963;29;20459;-75
2021/06/15 07:33:03;;;;;;;9.43;4.93;;;;;;;20.65;100.00;100950.38;4844823;29;20037;-75
2021/06/15 07:35:49;;;;;;;8.70;5.00;;;;;;;21.47;100.00;100955.41;4844037;29;20074;-76
2021/06/15 07:38:35;;;;;;;7.15;4.97;;;;;;;21.49;100.00;100954.38;4844593;29;20483;-75
2021/06/15 07:41:21;;;;;;;10.85;5.30;;;;;;;21.73;100.00;100957.44;4844575;29;20120;-75
2021/06/15 07:44:07;;;;;;;8.65;4.65;;;;;;;21.45;100.00;100954.63;4843675;29;20034;-75
2021/06/15 07:46:55;;;;;;;6.03;4.20;;;;;;;21.60;100.00;100949.28;4845529;29;20389;-76
2021/06/15 07:49:40;;;;;;;6.10;4.10;;;;;;;21.77;100.00;100949.16;4845352;29;20025;-75
2021/06/15 07:52:34;;;;;;;7.28;3.83;;;;;;;22.08;100.00;100940.16;4845721;29;20037;-75
2021/06/15 07:55:20;;;;;;;7.78;4.85;;;;;;;22.07;100.00;100941.97;4844999;29;20034;-75
2021/06/15 07:58:13;;;;;;;8.40;4.90;;;;;;;22.45;100.00;100927.13;4845265;29;20068;-76
2021/06/15 08:00:59;;;;;;;6.32;3.90;;;;;;;22.46;100.00;100927.94;4843841;29;20049;-75
2021/06/15 08:03:45;;;;;;;5.70;3.75;;;;;;;22.92;100.00;100921.44;4845886;29;20075;-76
2021/06/15 08:06:31;;;;;;;6.45;4.00;;;;;;;22.63;100.00;100928.63;4845495;29;20475;-76
2021/06/15 08:09:16;;;;;;;5.20;4.00;;;;;;;23.21;100.00;100933.78;4846192;29;20072;-76
2021/06/15 08:12:03;;;;;;;6.25;3.70;;;;;;;23.02;100.00;100926.09;4844116;29;20459;-76
2021/06/15 08:15:05;;;;;;;4.63;3.35;;;;;;;23.19;100.00;100927.66;4846441;29;20125;-77
2021/06/15 08:17:54;;;;;;;5.75;2.83;;;;;;;22.95;100.00;100915.91;4843911;29;20041;-74
2021/06/15 08:20:41;;;;;;;3.58;3.03;;;;;;;23.05;100.00;100917.88;4845899;29;20041;-75
2021/06/15 08:23:28;;;;;;;4.95;2.92;;;;;;;22.93;100.00;100913.31;4845596;29;20448;-75
2021/06/15 08:26:14;;;;;;;6.00;2.38;;;;;;;23.07;100.00;100923.13;4843972;29;20053;-75
2021/06/15 08:29:00;;;;;;;3.15;2.20;;;;;;;23.02;100.00;100922.53;4846527;29;20026;-76
2021/06/15 08:31:47;;;;;;;4.00;2.45;;;;;;;22.67;100.00;100911.47;4844816;29;20117;-76
2021/06/15 08:34:35;;;;;;;2.97;2.47;;;;;;;22.90;100.00;100908.16;4846014;29;20448;-75
2021/06/15 08:37:20;;;;;;;4.65;3.85;;;;;;;23.10;100.00;100897.03;4843995;29;20029;-75
2021/06/15 08:40:07;;;;;;;3.65;2.60;;;;;;;22.81;100.00;100899.88;4845303;29;20037;-74
2021/06/15 08:42:53;;;;;;;7.47;3.50;;;;;;;22.83;100.00;100895.31;4846592;29;20029;-75
2021/06/15 08:45:41;;;;;;;4.57;2.78;;;;;;;23.00;100.00;100905.75;4846049;29;20030;-75
2021/06/15 08:48:27;;;;;;;4.80;2.75;;;;;;;22.72;100.00;100914.72;4846890;29;20053;-75
2021/06/15 08:51:13;;;;;;;4.32;2.63;;;;;;;22.31;100.00;100911.09;4844221;29;20029;-75
2021/06/15 08:54:05;;;;;;;5.22;3.20;;;;;;;22.76;100.00;100910.91;4846439;29;20097;-75
2021/06/15 08:56:51;;;;;;;5.70;2.70;;;;;;;22.46;100.00;100909.25;4845926;29;20443;-75
2021/06/15 08:59:36;;;;;;;3.70;2.53;;;;;;;22.46;100.00;100914.59;4845923;29;20041;-75
2021/06/15 09:02:22;;;;;;;3.60;3.00;;;;;;;22.35;100.00;100906.44;4844135;29;20034;-77
2021/06/15 09:05:09;;;;;;;4.63;3.22;;;;;;;22.39;100.00;100905.28;4845401;29;20452;-76
2021/06/15 10:11:46;;;;;;;4.70;3.15;;;;;;;21.13;100.00;100886.38;5645682;23;20145;-76
2021/06/15 10:14:38;;;;;;;7.07;4.07;;;;;;;21.26;100.00;100877.53;4824841;29;20129;-75
2021/06/15 10:17:24;;;;;;;5.95;3.35;;;;;;;21.20;100.00;100879.72;4827026;29;20371;-76
2021/06/15 10:20:27;;;;;;;7.05;3.75;;;;;;;21.79;100.00;100874.38;4827164;29;20126;-75
2021/06/15 10:23:15;;;;;;;7.53;5.78;;;;;;;21.67;100.00;100873.31;4826830;29;20350;-76
2021/06/15 10:26:06;;;;;;;6.72;3.42;;;;;;;21.83;100.00;100874.09;4826309;29;20036;-76
2021/06/15 10:28:52;;;;;;;4.82;2.60;;;;;;;21.74;100.00;100877.31;4826688;29;20372;-75
2021/06/15 10:31:42;;;;;;;3.92;2.95;;;;;;;21.31;100.00;100879.97;4829223;29;20056;-74
2021/06/15 10:34:46;;;;;;;3.80;2.75;;;;;;;21.30;100.00;100880.91;4827615;29;20038;-73
2021/06/15 10:37:36;;;;;;;5.68;2.67;;;;;;;20.46;100.00;100878.66;4829764;29;20034;-74
2021/06/15 10:40:21;;;;;;;5.78;2.78;;;;;;;20.53;100.00;100873.84;4829213;29;20062;-75
2021/06/15 10:43:12;;;;;;;6.18;2.90;;;;;;;20.79;100.00;100871.44;4828811;29;20039;-75
2021/06/15 10:46:23;;;;;;;3.85;2.35;;;;;;;20.28;100.00;100869.00;4827133;29;20038;-75
2021/06/15 10:49:14;;;;;;;3.28;2.70;;;;;;;20.19;100.00;100877.50;4827061;29;20030;-74
2021/06/15 10:52:00;;;;;;;4.85;2.60;;;;;;;20.24;100.00;100877.22;4829661;29;20034;-74
2021/06/15 10:54:45;;;;;;;4.13;2.88;;;;;;;20.69;100.00;100870.22;4828432;29;20105;-75
2021/06/15 10:57:31;;;;;;;5.88;3.40;;;;;;;20.36;100.00;100885.41;4827196;29;20031;-75
2021/06/15 11:00:35;;;;;;;4.40;2.90;;;;;;;20.75;100.00;100875.22;4826886;29;20136;-76
2021/06/15 11:03:23;;;;;;;3.70;2.75;;;;;;;20.41;100.00;100878.03;4828696;29;20038;-76
2021/06/15 11:06:09;;;;;;;3.95;2.90;;;;;;;20.27;100.00;100872.63;4826952;29;20114;-76
2021/06/15 11:09:16;;;;;;;3.90;3.10;;;;;;;20.59;100.00;100865.50;4826807;29;20082;-75
2021/06/15 11:12:05;;;;;;;6.85;3.20;;;;;;;20.73;100.00;100858.44;4827139;29;20058;-74
2021/06/15 11:15:09;;;;;;;4.82;3.05;;;;;;;20.91;100.00;100846.78;4827349;29;20048;-76
2021/06/15 11:17:56;;;;;;;6.00;3.80;;;;;;;20.69;100.00;100854.25;4826647;29;20046;-76
2021/06/15 11:20:44;;;;;;;3.65;2.88;;;;;;;20.66;100.00;100853.56;4826824;29;20042;-75
2021/06/15 11:23:30;;;;;;;5.10;2.97;;;;;;;20.93;100.00;100850.22;4826928;29;20038;-75
2021/06/15 11:26:16;;;;;;;5.70;2.97;;;;;;;20.75;100.00;100853.03;4826561;29;20448;-75
2021/06/15 11:29:05;;;;;;;8.63;3.33;;;;;;;20.55;100.00;100845.31;4826667;29;20042;-75
2021/06/15 11:31:51;;;;;;;4.15;2.80;;;;;;;20.76;100.00;100849.41;4826547;29;20117;-74
2021/06/15 11:34:36;;;;;;;6.05;3.10;;;;;;;20.83;100.00;100846.34;4828393;29;20034;-76
2021/06/15 11:37:35;;;;;;;5.85;2.70;;;;;;;20.41;100.00;100842.59;4828269;29;20049;-76
2021/06/15 11:40:38;;;;;;;4.78;2.90;;;;;;;20.75;100.00;100845.91;4826040;29;20085;-76
2021/06/15 11:43:25;;;;;;;4.38;3.10;;;;;;;20.71;100.00;100833.72;4828871;29;20039;-74
2021/06/15 11:46:12;;;;;;;4.15;2.90;;;;;;;20.44;100.00;100837.06;4826570;29;20413;-75
2021/06/15 11:49:09;;;;;;;5.80;3.63;;;;;;;20.62;100.00;100828.91;4826034;29;20038;-73
2021/06/15 11:51:55;;;;;;;6.43;3.97;;;;;;;20.55;100.00;100826.69;4826023;29;20364;-75
2021/06/15 11:54:41;;;;;;;4.60;2.88;;;;;;;20.36;100.00;100820.66;4826045;29;20413;-75
2021/06/15 11:57:27;;;;;;;3.00;2.40;;;;;;;20.33;100.00;100819.03;4827769;29;20038;-76
2021/06/15 12:00:16;;;;;;;4.65;2.38;;;;;;;20.12;100.00;100814.91;4827508;29;20035;-75
2021/06/15 12:03:26;;;;;;;3.47;2.30;;;;;;;20.53;100.00;100812.63;4827158;29;20447;-75
2021/06/15 12:06:14;;;;;;;2.95;2.47;;;;;;;20.47;100.00;100805.81;4827006;29;20062;-76
2021/06/15 12:09:03;;;;;;;7.07;5.43;;;;;;;20.77;100.00;100800.56;4827776;29;20105;-75
2021/06/15 12:11:59;;;;;;;2.97;2.60;;;;;;;20.81;100.00;100794.13;4827385;29;20061;-75
2021/06/15 12:14:45;;;;;;;3.33;2.78;;;;;;;20.55;100.00;100792.94;4827856;29;20471;-75
2021/06/15 12:17:31;;;;;;;3.95;2.78;;;;;;;20.67;100.00;100791.38;4826101;29;20047;-75
2021/06/15 12:20:22;;;;;;;3.08;2.63;;;;;;;20.31;100.00;100788.13;4828100;29;20030;-76
2021/06/15 12:23:32;;;;;;;3.78;2.50;;;;;;;20.40;100.00;100777.84;4825654;29;20040;-77
2021/06/15 12:26:36;;;;;;;3.58;2.63;;;;;;;20.60;100.00;100779.34;4826911;29;20044;-75
2021/06/15 12:29:21;;;;;;;5.28;2.67;;;;;;;20.77;100.00;100782.75;4827739;29;20038;-74
2021/06/15 12:32:07;;;;;;;3.13;2.50;;;;;;;20.83;100.00;100779.75;4826393;29;20050;-76
2021/06/15 12:34:53;;;;;;;5.13;2.70;;;;;;;20.72;100.00;100781.31;4826604;29;20034;-75
2021/06/15 12:37:41;;;;;;;3.70;2.90;;;;;;;20.42;100.00;100778.63;4827458;29;20059;-75
2021/06/15 12:40:26;;;;;;;7.03;3.28;;;;;;;20.75;100.00;100771.34;4825766;29;20109;-75
2021/06/15 12:43:12;;;;;;;5.30;3.70;;;;;;;20.86;100.00;100771.56;4827259;29;20031;-75
2021/06/15 12:46:12;;;;;;;4.05;3.10;;;;;;;21.27;100.00;100753.16;4826726;29;20053;-75
2021/06/15 12:49:02;;;;;;;4.47;3.40;;;;;;;21.28;100.00;100750.41;4827011;29;20091;-75
2021/06/15 12:51:52;;;;;;;3.83;3.33;;;;;;;21.37;100.00;100746.28;4825211;29;20136;-73
2021/06/15 12:54:42;;;;;;;5.05;3.10;;;;;;;21.03;100.00;100742.19;4826392;29;20058;-76
2021/06/15 12:57:28;;;;;;;3.50;3.20;;;;;;;20.89;100.00;100739.44;4827048;29;20460;-75
2021/06/15 13:00:16;;;;;;;4.07;3.20;;;;;;;20.58;100.00;100736.00;4827353;29;20386;-76
2021/06/15 13:03:06;;;;;;;3.63;2.80;;;;;;;20.80;100.00;100737.31;5084461;23;20069;-74
2021/06/15 13:05:52;;;;;;;5.60;2.58;;;;;;;20.64;100.00;100728.50;4843652;29;20494;-75
2021/06/15 13:08:39;;;;;;;6.35;3.00;;;;;;;20.61;100.00;100727.84;4843457;29;20038;-75
2021/06/15 13:11:25;;;;;;;4.82;2.50;;;;;;;20.62;100.00;100729.56;4844403;29;20092;-74
2021/06/15 13:14:22;;;;;;;3.47;3.00;;;;;;;20.46;100.00;100721.59;4844851;29;20455;-75
2021/06/15 13:17:18;;;;;;;5.40;3.50;;;;;;;20.31;100.00;100733.13;4844785;29;20041;-76
2021/06/15 13:20:10;;;;;;;4.50;3.28;;;;;;;20.33;100.00;100727.72;4843533;29;20038;-75
2021/06/15 13:22:56;;;;;;;3.67;3.10;;;;;;;20.56;100.00;100725.44;4870310;23;20353;-75
2021/06/15 13:25:42;;;;;;;4.63;3.30;;;;;;;20.75;100.00;100715.44;4843612;29;20062;-75
2021/06/15 13:28:28;;;;;;;4.03;3.15;;;;;;;20.68;100.00;100713.19;4843325;29;20071;-74
2021/06/15 13:31:24;;;;;;;3.58;2.58;;;;;;;20.83;100.00;100702.53;4844667;29;20038;-75
2021/06/15 13:34:13;;;;;;;4.97;3.10;;;;;;;20.86;100.00;100704.13;4843208;29;20030;-74
2021/06/15 13:37:07;;;;;;;3.60;3.05;;;;;;;20.90;100.00;100711.84;4844496;29;20090;-74
2021/06/15 13:40:04;;;;;;;4.28;2.60;;;;;;;21.12;100.00;100703.44;4844920;29;20121;-74
2021/06/15 13:42:54;;;;;;;3.78;3.00;;;;;;;20.84;100.00;100706.03;4842708;29;20038;-75
2021/06/15 13:45:46;;;;;;;6.50;4.13;;;;;;;21.39;100.00;100696.44;4843446;29;20053;-74
2021/06/15 13:48:31;;;;;;;3.85;2.50;;;;;;;21.35;100.00;100689.56;4843255;29;20030;-74
2021/06/15 13:51:17;;;;;;;3.72;2.60;;;;;;;20.88;100.00;100676.47;4844460;29;20136;-74
2021/06/15 13:54:03;;;;;;;4.97;3.08;;;;;;;20.30;100.00;100670.22;4842483;29;20475;-75
2021/06/15 13:56:49;;;;;;;4.32;2.17;;;;;;;20.99;100.00;100667.84;4843585;29;20041;-75
2021/06/15 13:59:35;;;;;;;2.40;2.20;;;;;;;20.78;100.00;100659.31;4842416;29;20110;-75
2021/06/15 14:02:21;;;;;;;2.80;2.40;;;;;;;20.73;100.00;100657.88;4844222;29;20479;-75
2021/06/15 14:05:07;;;;;;;2.72;2.05;;;;;;;21.17;100.00;100646.25;4847620;29;20038;-75
2021/06/15 14:07:53;;;;;;;4.28;2.40;;;;;;;21.29;100.00;100641.97;4846680;29;20034;-76
2021/06/15 14:10:39;;;;;;;5.05;2.70;;;;;;;21.19;100.00;100636.38;4846310;29;20386;-76
2021/06/15 14:13:25;;;;;;;3.08;2.50;;;;;;;21.46;100.00;100649.78;4846210;29;20523;-76
2021/06/15 14:16:11;;;;;;;2.75;2.30;;;;;;;21.04;100.00;100645.31;4847680;29;20326;-77
2021/06/15 14:18:57;;;;;;;4.13;2.60;;;;;;;21.42;100.00;100648.25;4846256;29;20038;-76
2021/06/15 14:21:43;;;;;;;3.33;2.47;;;;;;;21.22;100.00;100646.81;4847223;29;20037;-76
2021/06/15 14:24:28;;;;;;;4.82;2.53;;;;;;;21.20;100.00;100643.41;4845989;29;20058;-76
2021/06/15 14:27:14;;;;;;;4.07;2.88;;;;;;;21.30;100.00;100649.03;4847199;29;20069;-77
2021/06/15 14:30:01;;;;;;;5.78;3.03;;;;;;;21.70;100.00;100645.56;4848421;29;20371;-77
2021/06/15 14:32:47;;;;;;;4.38;2.60;;;;;;;21.51;100.00;100640.53;4850857;29;20040;-76
2021/06/15 14:35:33;;;;;;;3.38;2.38;;;;;;;21.80;100.00;100647.56;4850626;29;20069;-76
2021/06/15 14:38:19;;;;;;;4.65;2.53;;;;;;;22.06;100.00;100636.03;4847527;29;20483;-76
2021/06/15 14:41:04;;;;;;;4.20;2.63;;;;;;;21.95;100.00;100640.38;4846353;29;20049;-76
2021/06/15 14:43:50;;;;;;;3.83;2.65;;;;;;;21.82;100.00;100629.63;4845582;29;20053;-76
2021/06/15 14:46:37;;;;;;;3.50;2.70;;;;;;;22.21;100.00;100632.38;4847182;29;20038;-76
2021/06/15 14:49:23;;;;;;;8.10;3.60;;;;;;;21.91;100.00;100630.84;4845327;29;20060;-76
2021/06/15 14:52:08;;;;;;;3.55;2.50;;;;;;;21.58;100.00;100628.50;4847746;29;20057;-77
2021/06/15 14:54:54;;;;;;;3.30;2.63;;;;;;;21.62;100.00;100630.03;4845461;29;20038;-76
2021/06/15 14:57:41;;;;;;;3.00;2.30;;;;;;;21.62;100.00;100632.69;4845687;29;20051;-76
2021/06/15 15:00:27;;;;;;;5.95;3.00;;;;;;;21.77;100.00;100623.75;4845208;29;20088;-76
2021/06/15 15:03:13;;;;;;;4.90;2.50;;;;;;;21.78;100.00;100628.13;4845669;29;20057;-76
2021/06/15 15:05:58;;;;;;;4.18;2.70;;;;;;;21.83;100.00;100628.66;4846777;29;20034;-77
2021/06/15 15:08:44;;;;;;;4.28;2.72;;;;;;;22.20;100.00;100619.97;4845699;29;20018;-76
2021/06/15 15:11:31;;;;;;;3.15;2.42;;;;;;;21.94;100.00;100617.31;4845241;29;20026;-76
2021/06/15 15:14:17;;;;;;;2.88;2.40;;;;;;;21.74;100.00;100615.94;4844187;29;20523;-76
2021/06/15 15:17:03;;;;;;;2.88;2.58;;;;;;;21.65;100.00;100620.97;4846634;29;20381;-77
2021/06/15 15:19:49;;;;;;;4.68;3.00;;;;;;;21.84;100.00;100624.19;4846039;29;20443;-76
2021/06/15 15:22:35;;;;;;;4.38;2.90;;;;;;;22.00;100.00;100623.13;4846544;29;20441;-75
2021/06/15 15:25:22;;;;;;;2.50;2.28;;;;;;;21.88;100.00;100610.56;4847311;29;20444;-76
2021/06/15 15:28:10;;;;;;;3.00;2.50;;;;;;;21.89;100.00;100612.28;4846050;29;20049;-76
2021/06/15 15:30:56;;;;;;;3.45;2.78;;;;;;;22.04;100.00;100613.94;4846473;29;20353;-76
2021/06/15 15:33:42;;;;;;;2.80;2.50;;;;;;;22.11;100.00;100609.06;4844902;29;20456;-76
2021/06/15 15:36:29;;;;;;;5.03;2.58;;;;;;;21.97;100.00;100601.97;4845864;29;20444;-76
2021/06/15 15:39:14;;;;;;;3.60;2.88;;;;;;;21.76;100.00;100606.03;4845073;29;20109;-76
2021/06/15 15:42:00;;;;;;;2.80;2.50;;;;;;;21.60;100.00;100594.63;4844800;29;20040;-75
2021/06/15 15:44:55;;;;;;;3.42;3.03;;;;;;;21.39;100.00;100597.81;4846859;29;20368;-75
2021/06/15 15:47:44;;;;;;;4.57;2.53;;;;;;;21.73;100.00;100597.38;4844268;29;20367;-75
2021/06/15 15:50:36;;;;;;;4.05;2.42;;;;;;;21.60;100.00;100596.41;4844869;29;20048;-75
2021/06/15 15:53:22;;;;;;;5.50;2.83;;;;;;;21.47;100.00;100600.84;4845863;29;20432;-75
2021/06/15 15:56:10;;;;;;;3.80;3.28;;;;;;;21.43;100.00;100597.53;4844577;29;20033;-75
2021/06/15 15:58:56;;;;;;;4.65;3.20;;;;;;;21.70;100.00;100597.56;4844478;29;20037;-75
2021/06/15 16:01:42;;;;;;;4.63;3.67;;;;;;;21.59;100.00;100594.72;4845784;29;20022;-76
2021/06/15 16:04:28;;;;;;;8.27;3.78;;;;;;;21.48;100.00;100590.06;4846764;29;20044;-76
2021/06/15 16:07:14;;;;;;;6.00;3.85;;;;;;;21.47;100.00;100591.03;4845856;29;20034;-76
2021/06/15 16:09:59;;;;;;;4.15;3.40;;;;;;;21.05;100.00;100588.41;4843606;29;20026;-75
2021/06/15 16:12:49;;;;;;;5.85;3.70;;;;;;;20.90;100.00;100585.81;4844672;29;20030;-75
2021/06/15 16:15:37;;;;;;;6.30;3.90;;;;;;;20.63;100.00;100580.38;4846194;29;20425;-76
2021/06/15 16:18:23;;;;;;;8.32;3.50;;;;;;;20.00;100.00;100560.22;4843609;29;20037;-75
2021/06/15 16:21:09;;;;;;;6.82;3.40;;;;;;;20.06;100.00;100543.03;4844323;29;20388;-75
2021/06/15 16:23:54;;;;;;;5.68;3.78;;;;;;;20.16;100.00;100538.91;4844844;29;20069;-75
2021/06/15 16:26:40;;;;;;;6.05;4.10;;;;;;;19.91;100.00;100542.13;4845110;29;20029;-75
2021/06/15 16:29:26;;;;;;;5.55;4.15;;;;;;;20.48;100.00;100540.50;4845323;29;20038;-76
2021/06/15 16:32:13;;;;;;;5.50;4.28;;;;;;;20.31;100.00;100540.66;4844183;29;20413;-76
2021/06/15 16:34:59;;;;;;;8.05;4.38;;;;;;;20.42;100.00;100530.25;4843581;29;20112;-75
2021/06/15 16:37:45;;;;;;;7.53;4.90;;;;;;;20.00;100.00;100533.63;4847308;29;20025;-76
2021/06/15 16:40:31;;;;;;;9.73;5.70;;;;;;;19.51;100.00;100645.50;4846793;29;20155;-75
2021/06/15 16:43:17;;;;;;;6.75;3.53;;;;;;;18.68;100.00;100668.53;4843528;29;20042;-75
2021/06/15 16:46:03;;;;;;;7.85;3.28;;;;;;;17.73;100.00;100683.00;4845517;29;20364;-81
2021/06/15 16:48:49;;;;;;;8.20;3.80;;;;;;;17.90;100.00;100651.25;4844249;29;20030;-80
2021/06/15 16:51:35;;;;;;;8.43;3.13;;;;;;;17.75;100.00;100694.38;4842889;29;20026;-80
2021/06/15 16:54:21;;;;;;;5.25;2.97;;;;;;;17.59;100.00;100691.59;4844906;29;20363;-79
2021/06/15 16:57:07;;;;;;;7.70;3.67;;;;;;;17.77;100.00;100697.84;4843844;29;20041;-78
2021/06/15 16:59:53;;;;;;;5.05;3.30;;;;;;;18.16;100.00;100706.50;4845253;29;20129;-77
2021/06/15 17:02:39;;;;;;;7.10;3.30;;;;;;;18.10;100.00;100693.56;4843744;29;20021;-78
2021/06/15 17:05:25;;;;;;;8.43;3.80;;;;;;;18.26;100.00;100681.28;4845517;29;20112;-79
2021/06/15 17:08:11;;;;;;;4.75;2.80;;;;;;;18.11;100.00;100674.06;4842887;29;20030;-77
2021/06/15 17:10:57;;;;;;;5.95;2.40;;;;;;;18.13;100.00;100670.41;4843647;29;20029;-77
2021/06/15 17:13:43;;;;;;;3.50;2.40;;;;;;;18.22;100.00;100666.47;4844555;29;20054;-79
2021/06/15 17:16:31;;;;;;;5.47;2.38;;;;;;;18.30;100.00;100662.50;4843132;29;20105;-79
2021/06/15 17:19:16;;;;;;;4.18;2.42;;;;;;;18.33;100.00;100664.13;4843093;29;20368;-78
2021/06/15 17:22:04;;;;;;;2.80;2.47;;;;;;;18.19;100.00;100656.84;4845011;29;20030;-77
2021/06/15 17:24:50;;;;;;;3.72;2.50;;;;;;;18.31;100.00;100650.06;4844381;29;20054;-78
2021/06/15 17:27:36;;;;;;;5.82;2.85;;;;;;;18.44;100.00;100648.53;4844632;29;20038;-78
2021/06/15 17:30:24;;;;;;;4.30;2.95;;;;;;;18.53;100.00;100642.81;4845016;29;20030;-78
2021/06/15 17:33:09;;;;;;;8.45;4.18;;;;;;;18.73;100.00;100635.50;4843383;29;20026;-77
2021/06/15 17:35:55;;;;;;;9.80;4.60;;;;;;;18.74;100.00;100631.06;4843119;29;20033;-78
2021/06/15 17:38:45;;;;;;;6.60;4.28;;;;;;;18.96;100.00;100621.91;4844368;29;20120;-78
2021/06/15 17:41:32;;;;;;;5.97;4.63;;;;;;;18.79;100.00;100623.72;4847680;29;20061;-76
2021/06/15 17:44:18;;;;;;;8.48;4.93;;;;;;;18.90;100.00;100616.06;4848797;29;20044;-77
2021/06/15 17:47:04;;;;;;;8.95;5.82;;;;;;;18.61;100.00;100625.53;4849558;29;20086;-78
2021/06/15 17:49:50;;;;;;;8.45;6.30;;;;;;;18.78;100.00;100633.47;4849431;29;20048;-77
2021/06/15 17:52:37;;;;;;;9.93;6.10;;;;;;;19.04;100.00;100608.19;4848539;29;20053;-78
2021/06/15 17:55:23;;;;;;;9.02;5.93;;;;;;;19.13;100.00;100608.56;4847799;29;20030;-76
2021/06/15 17:58:12;;;;;;;9.07;5.95;;;;;;;19.14;100.00;100609.44;4848011;29;20026;-76
2021/06/15 18:00:58;;;;;;;8.40;6.45;;;;;;;19.17;100.00;100607.47;4847038;29;20042;-77
2021/06/15 18:03:46;;;;;;;9.50;6.82;;;;;;;19.36;100.00;100606.50;4847343;29;20030;-76
2021/06/15 18:06:33;;;;;;;10.10;6.63;;;;;;;19.46;100.00;100611.22;4848134;29;20034;-77
2021/06/15 18:09:18;;;;;;;9.80;7.03;;;;;;;19.54;100.00;100606.34;4846971;29;20033;-77
2021/06/15 18:12:05;;;;;;;10.73;7.50;;;;;;;19.44;100.00;100606.94;4847834;29;20034;-76
2021/06/15 18:14:50;;;;;;;13.57;8.60;;;;;;;19.29;100.00;100607.78;4847243;29;20030;-76
2021/06/15 18:17:37;;;;;;;10.32;7.70;;;;;;;19.41;100.00;100609.75;4847779;29;20463;-76
2021/06/15 18:20:22;;;;;;;10.57;8.55;;;;;;;19.33;100.00;100609.31;4847663;29;20120;-77
2021/06/15 18:23:09;;;;;;;12.52;9.23;;;;;;;19.36;100.00;100604.69;4845255;29;20472;-77
2021/06/15 18:25:54;;;;;;;11.60;8.43;;;;;;;19.34;100.00;100590.63;4846446;29;20113;-77
2021/06/15 18:28:43;;;;;;;10.15;8.27;;;;;;;19.50;100.00;100580.00;4846790;29;20029;-77
2021/06/15 18:31:30;;;;;;;9.45;7.93;;;;;;;19.54;100.00;100585.06;4845717;29;20029;-76
2021/06/15 18:34:15;;;;;;;11.70;8.20;;;;;;;19.59;100.00;100577.69;4847728;29;20456;-77
2021/06/15 18:37:01;;;;;;;8.90;7.30;;;;;;;19.38;100.00;100568.28;4846122;29;20029;-74
2021/06/15 18:39:47;;;;;;;7.50;6.38;;;;;;;19.25;100.00;100563.72;4846020;29;20049;-76
2021/06/15 18:42:33;;;;;;;7.75;4.72;;;;;;;19.26;100.00;100563.63;4845705;29;20370;-73
2021/06/15 18:45:19;;;;;;;5.80;4.53;;;;;;;19.19;100.00;100572.84;4846514;29;20336;-74
2021/06/15 18:48:05;;;;;;;5.38;4.82;;;;;;;19.33;100.00;100572.97;4846479;29;20090;-77
2021/06/15 18:50:51;;;;;;;4.72;3.90;;;;;;;18.64;100.00;100576.75;4846146;29;20139;-76
2021/06/15 18:53:37;;;;;;;4.68;4.18;;;;;;;18.97;100.00;100586.44;4848164;29;20044;-75
2021/06/15 18:56:23;;;;;;;6.47;4.40;;;;;;;19.09;100.00;100593.72;4847558;29;20042;-74
2021/06/15 18:59:10;;;;;;;5.93;4.55;;;;;;;19.16;100.00;100594.25;4847680;29;20065;-76
2021/06/15 19:01:56;;;;;;;5.38;4.50;;;;;;;19.26;100.00;100579.56;4847951;29;20053;-75
2021/06/15 19:04:42;;;;;;;5.22;4.50;;;;;;;19.07;100.00;100579.69;4825469;29;20042;-76
2021/06/15 19:07:28;;;;;;;5.88;5.13;;;;;;;19.28;100.00;100593.63;4833106;29;20469;-75
2021/06/15 19:10:16;;;;;;;7.10;5.28;;;;;;;19.46;100.00;100583.78;4832279;29;20117;-76
2021/06/15 19:13:02;;;;;;;5.90;5.30;;;;;;;19.44;100.00;100589.16;4832571;29;20072;-75
2021/06/15 19:15:48;;;;;;;7.22;5.95;;;;;;;19.32;100.00;100579.22;4831500;29;20061;-75
2021/06/15 19:18:34;;;;;;;7.60;5.80;;;;;;;19.43;100.00;100581.28;4834370;29;20046;-75
2021/06/15 19:21:20;;;;;;;6.18;5.40;;;;;;;19.17;100.00;100580.91;4833809;29;20435;-75
2021/06/15 19:24:06;;;;;;;8.80;4.90;;;;;;;18.81;100.00;100566.13;4839275;29;20069;-76
2021/06/15 19:26:52;;;;;;;7.68;4.65;;;;;;;18.94;100.00;100569.81;4852123;29;20046;-77
2021/06/15 19:29:38;;;;;;;5.68;4.43;;;;;;;19.18;100.00;100565.81;4850405;29;20037;-76
2021/06/15 19:32:24;;;;;;;5.30;4.70;;;;;;;18.75;100.00;100555.81;4836787;29;20356;-75
2021/06/15 19:35:10;;;;;;;6.32;4.40;;;;;;;19.00;100.00;100556.19;4834505;29;20042;-76
2021/06/15 19:37:55;;;;;;;5.60;4.50;;;;;;;19.21;100.00;100541.75;4843364;29;20042;-76
2021/06/15 19:40:41;;;;;;;4.57;3.88;;;;;;;18.95;100.00;100539.66;4845690;29;20030;-77
2021/06/15 19:43:27;;;;;;;9.02;6.00;;;;;;;18.61;100.00;100539.78;4835880;29;20046;-77
2021/06/15 19:46:16;;;;;;;12.25;8.38;;;;;;;18.53;100.00;100556.06;4831769;29;20061;-77
2021/06/15 19:49:02;;;;;;;11.45;7.78;;;;;;;18.38;100.00;100559.56;4834836;29;20117;-76